sensor_id;sensor_type;location;lat;lon;timestamp;P1;durP1;ratioP1;P2;durP2;ratioP2
73825;SDS011;62155;55.080;73.208;2022-07-23T00:01:52;4.00;;;3.75;;
73825;SDS011;62155;55.080;73.208;2022-07-23T00:04:25;4.00;;;4.00;;
73825;SDS011;62155;55.080;73.208;2022-07-23T00:06:51;14.50;;;14.00;;
73825;SDS011;62155;55.080;73.208;2022-07-23T00:09:25;16.50;;;15.50;;
73825;SDS011;62155;55.080;73.208;2022-07-23T00:11:56;7.00;;;7.00;;
73825;SDS011;62155;55.080;73.208;2022-07-23T00:14:25;7.00;;;7.00;;
73825;SDS011;62155;55.080;73.208;2022-07-23T00:17:02;6.50;;;6.50;;
73825;SDS011;62155;55.080;73.208;2022-07-23T00:19:30;7.60;;;7.40;;
73825;SDS011;62155;55.080;73.208;2022-07-23T00:22:18;6.00;;;6.00;;
73825;SDS011;62155;55.080;73.208;2022-07-23T00:24:56;12.00;;;11.00;;
73825;SDS011;62155;55.080;73.208;2022-07-23T00:27:23;21.00;;;19.00;;
73825;SDS011;62155;55.080;73.208;2022-07-23T00:29:50;14.00;;;12.50;;
73825;SDS011;62155;55.080;73.208;2022-07-23T00:32:24;5.75;;;4.50;;
73825;SDS011;62155;55.080;73.208;2022-07-23T00:35:11;7.75;;;7.00;;
73825;SDS011;62155;55.080;73.208;2022-07-23T00:37:41;7.25;;;7.25;;
73825;SDS011;62155;55.080;73.208;2022-07-23T00:40:14;9.50;;;9.50;;
73825;SDS011;62155;55.080;73.208;2022-07-23T00:42:42;5.50;;;5.00;;
73825;SDS011;62155;55.080;73.208;2022-07-23T00:45:10;3.00;;;3.00;;
73825;SDS011;62155;55.080;73.208;2022-07-23T00:47:41;3.75;;;3.75;;
73825;SDS011;62155;55.080;73.208;2022-07-23T00:50:08;3.00;;;3.00;;
73825;SDS011;62155;55.080;73.208;2022-07-23T00:52:37;4.25;;;4.25;;
73825;SDS011;62155;55.080;73.208;2022-07-23T00:55:16;5.00;;;5.00;;
73825;SDS011;62155;55.080;73.208;2022-07-23T00:57:43;6.50;;;6.50;;
73825;SDS011;62155;55.080;73.208;2022-07-23T01:00:13;5.33;;;5.33;;
73825;SDS011;62155;55.080;73.208;2022-07-23T01:02:50;5.00;;;4.00;;
73825;SDS011;62155;55.080;73.208;2022-07-23T01:05:17;5.33;;;4.00;;
73825;SDS011;62155;55.080;73.208;2022-07-23T01:07:49;8.00;;;7.00;;
73825;SDS011;62155;55.080;73.208;2022-07-23T01:10:18;5.25;;;5.25;;
73825;SDS011;62155;55.080;73.208;2022-07-23T01:13:03;4.50;;;4.00;;
73825;SDS011;62155;55.080;73.208;2022-07-23T01:15:37;5.00;;;5.00;;
73825;SDS011;62155;55.080;73.208;2022-07-23T01:18:10;5.00;;;4.00;;
73825;SDS011;62155;55.080;73.208;2022-07-23T01:20:39;12.50;;;12.50;;
73825;SDS011;62155;55.080;73.208;2022-07-23T01:23:09;27.00;;;26.00;;
73825;SDS011;62155;55.080;73.208;2022-07-23T01:25:54;33.67;;;31.33;;
73825;SDS011;62155;55.080;73.208;2022-07-23T01:28:31;37.00;;;32.75;;
73825;SDS011;62155;55.080;73.208;2022-07-23T01:31:12;45.00;;;37.00;;
73825;SDS011;62155;55.080;73.208;2022-07-23T01:33:40;35.00;;;30.75;;
73825;SDS011;62155;55.080;73.208;2022-07-23T01:36:06;19.67;;;17.67;;
73825;SDS011;62155;55.080;73.208;2022-07-23T01:38:35;28.50;;;23.50;;
73825;SDS011;62155;55.080;73.208;2022-07-23T01:41:02;27.50;;;23.75;;
73825;SDS011;62155;55.080;73.208;2022-07-23T01:43:34;31.00;;;30.00;;
73825;SDS011;62155;55.080;73.208;2022-07-23T01:46:02;30.25;;;29.00;;
73825;SDS011;62155;55.080;73.208;2022-07-23T01:48:44;42.75;;;34.50;;
73825;SDS011;62155;55.080;73.208;2022-07-23T01:51:28;34.00;;;29.33;;
73825;SDS011;62155;55.080;73.208;2022-07-23T01:54:06;45.00;;;36.50;;
73825;SDS011;62155;55.080;73.208;2022-07-23T01:56:43;51.25;;;41.00;;
73825;SDS011;62155;55.080;73.208;2022-07-23T01:59:10;55.75;;;44.25;;
73825;SDS011;62155;55.080;73.208;2022-07-23T02:01:38;51.75;;;42.50;;
73825;SDS011;62155;55.080;73.208;2022-07-23T02:04:05;32.50;;;30.25;;
73825;SDS011;62155;55.080;73.208;2022-07-23T02:06:41;40.00;;;34.00;;
73825;SDS011;62155;55.080;73.208;2022-07-23T02:09:28;71.00;;;63.67;;
73825;SDS011;62155;55.080;73.208;2022-07-23T02:11:56;79.25;;;74.25;;
73825;SDS011;62155;55.080;73.208;2022-07-23T02:14:26;73.00;;;64.00;;
73825;SDS011;62155;55.080;73.208;2022-07-23T02:16:53;62.00;;;48.50;;
73825;SDS011;62155;55.080;73.208;2022-07-23T02:19:25;58.50;;;47.00;;
73825;SDS011;62155;55.080;73.208;2022-07-23T02:21:55;31.25;;;30.00;;
73825;SDS011;62155;55.080;73.208;2022-07-23T02:24:26;28.00;;;28.00;;
73825;SDS011;62155;55.080;73.208;2022-07-23T02:27:03;58.25;;;47.00;;
73825;SDS011;62155;55.080;73.208;2022-07-23T02:29:32;60.75;;;48.25;;
73825;SDS011;62155;55.080;73.208;2022-07-23T02:31:59;47.25;;;38.50;;
73825;SDS011;62155;55.080;73.208;2022-07-23T02:34:26;37.00;;;32.50;;
73825;SDS011;62155;55.080;73.208;2022-07-23T02:36:54;39.00;;;34.00;;
73825;SDS011;62155;55.080;73.208;2022-07-23T02:39:25;37.00;;;32.00;;
73825;SDS011;62155;55.080;73.208;2022-07-23T02:41:51;28.00;;;25.50;;
73825;SDS011;62155;55.080;73.208;2022-07-23T02:44:25;23.00;;;22.00;;
73825;SDS011;62155;55.080;73.208;2022-07-23T02:46:59;25.75;;;22.00;;
73825;SDS011;62155;55.080;73.208;2022-07-23T02:49:28;19.00;;;18.67;;
73825;SDS011;62155;55.080;73.208;2022-07-23T02:51:55;20.50;;;18.00;;
73825;SDS011;62155;55.080;73.208;2022-07-23T02:54:25;22.50;;;21.50;;
73825;SDS011;62155;55.080;73.208;2022-07-23T02:56:54;19.50;;;18.50;;
73825;SDS011;62155;55.080;73.208;2022-07-23T02:59:26;26.00;;;24.50;;
73825;SDS011;62155;55.080;73.208;2022-07-23T03:01:58;20.50;;;18.25;;
73825;SDS011;62155;55.080;73.208;2022-07-23T03:04:27;22.00;;;20.33;;
73825;SDS011;62155;55.080;73.208;2022-07-23T03:07:14;19.25;;;19.00;;
73825;SDS011;62155;55.080;73.208;2022-07-23T03:09:41;34.00;;;31.00;;
73825;SDS011;62155;55.080;73.208;2022-07-23T03:12:09;29.25;;;28.50;;
73825;SDS011;62155;55.080;73.208;2022-07-23T03:14:36;26.25;;;25.50;;
73825;SDS011;62155;55.080;73.208;2022-07-23T03:17:03;20.25;;;19.50;;
73825;SDS011;62155;55.080;73.208;2022-07-23T03:19:31;17.50;;;16.50;;
73825;SDS011;62155;55.080;73.208;2022-07-23T03:21:58;18.00;;;15.25;;
73825;SDS011;62155;55.080;73.208;2022-07-23T03:24:26;16.50;;;14.00;;
73825;SDS011;62155;55.080;73.208;2022-07-23T03:27:14;46.25;;;37.25;;
73825;SDS011;62155;55.080;73.208;2022-07-23T03:29:52;49.00;;;40.00;;
73825;SDS011;62155;55.080;73.208;2022-07-23T03:32:20;67.25;;;52.25;;
73825;SDS011;62155;55.080;73.208;2022-07-23T03:34:50;75.00;;;65.67;;
73825;SDS011;62155;55.080;73.208;2022-07-23T03:37:20;68.75;;;56.00;;
73825;SDS011;62155;55.080;73.208;2022-07-23T03:39:52;61.00;;;48.25;;
73825;SDS011;62155;55.080;73.208;2022-07-23T03:42:21;61.75;;;49.50;;
73825;SDS011;62155;55.080;73.208;2022-07-23T03:44:48;49.00;;;41.00;;
73825;SDS011;62155;55.080;73.208;2022-07-23T03:47:28;59.00;;;47.00;;
73825;SDS011;62155;55.080;73.208;2022-07-23T03:49:56;53.67;;;43.67;;
73825;SDS011;62155;55.080;73.208;2022-07-23T03:52:27;29.50;;;28.25;;
73825;SDS011;62155;55.080;73.208;2022-07-23T03:54:55;27.50;;;25.25;;
73825;SDS011;62155;55.080;73.208;2022-07-23T03:57:35;31.50;;;29.50;;
73825;SDS011;62155;55.080;73.208;2022-07-23T04:00:02;40.00;;;33.00;;
73825;SDS011;62155;55.080;73.208;2022-07-23T04:02:39;36.00;;;31.25;;
73825;SDS011;62155;55.080;73.208;2022-07-23T04:05:07;19.50;;;17.00;;
73825;SDS011;62155;55.080;73.208;2022-07-23T04:07:35;11.50;;;9.50;;
73825;SDS011;62155;55.080;73.208;2022-07-23T04:10:02;9.00;;;9.00;;
73825;SDS011;62155;55.080;73.208;2022-07-23T04:12:38;9.75;;;9.75;;
73825;SDS011;62155;55.080;73.208;2022-07-23T04:15:07;16.50;;;15.75;;
73825;SDS011;62155;55.080;73.208;2022-07-23T04:17:37;15.50;;;14.25;;
73825;SDS011;62155;55.080;73.208;2022-07-23T04:20:05;20.00;;;17.00;;
73825;SDS011;62155;55.080;73.208;2022-07-23T04:22:39;18.00;;;17.50;;
73825;SDS011;62155;55.080;73.208;2022-07-23T04:25:06;20.00;;;20.00;;
73825;SDS011;62155;55.080;73.208;2022-07-23T04:27:38;19.25;;;19.25;;
73825;SDS011;62155;55.080;73.208;2022-07-23T04:30:14;17.00;;;17.00;;
73825;SDS011;62155;55.080;73.208;2022-07-23T04:32:47;15.50;;;15.50;;
73825;SDS011;62155;55.080;73.208;2022-07-23T04:35:20;12.00;;;12.00;;
73825;SDS011;62155;55.080;73.208;2022-07-23T04:37:48;14.00;;;13.00;;
73825;SDS011;62155;55.080;73.208;2022-07-23T04:40:21;7.75;;;5.50;;
73825;SDS011;62155;55.080;73.208;2022-07-23T04:42:49;11.75;;;10.25;;
73825;SDS011;62155;55.080;73.208;2022-07-23T04:45:16;15.00;;;13.00;;
73825;SDS011;62155;55.080;73.208;2022-07-23T04:47:44;19.25;;;18.25;;
73825;SDS011;62155;55.080;73.208;2022-07-23T04:50:13;21.00;;;21.00;;
73825;SDS011;62155;55.080;73.208;2022-07-23T04:52:44;21.00;;;20.25;;
73825;SDS011;62155;55.080;73.208;2022-07-23T04:55:21;18.33;;;18.00;;
73825;SDS011;62155;55.080;73.208;2022-07-23T04:57:59;19.00;;;18.25;;
73825;SDS011;62155;55.080;73.208;2022-07-23T05:00:26;16.00;;;16.00;;
73825;SDS011;62155;55.080;73.208;2022-07-23T05:02:53;19.00;;;18.00;;
73825;SDS011;62155;55.080;73.208;2022-07-23T05:05:21;13.50;;;13.00;;
73825;SDS011;62155;55.080;73.208;2022-07-23T05:07:49;16.75;;;16.75;;
73825;SDS011;62155;55.080;73.208;2022-07-23T05:10:27;12.75;;;12.50;;
73825;SDS011;62155;55.080;73.208;2022-07-23T05:13:04;9.00;;;8.00;;
73825;SDS011;62155;55.080;73.208;2022-07-23T05:15:35;10.00;;;9.00;;
73825;SDS011;62155;55.080;73.208;2022-07-23T05:18:03;13.75;;;12.25;;
73825;SDS011;62155;55.080;73.208;2022-07-23T05:20:41;16.00;;;15.00;;
73825;SDS011;62155;55.080;73.208;2022-07-23T05:23:09;14.50;;;13.50;;
73825;SDS011;62155;55.080;73.208;2022-07-23T05:25:36;15.00;;;15.00;;
73825;SDS011;62155;55.080;73.208;2022-07-23T05:28:03;24.25;;;22.25;;
73825;SDS011;62155;55.080;73.208;2022-07-23T05:30:30;31.00;;;29.33;;
73825;SDS011;62155;55.080;73.208;2022-07-23T05:33:02;16.00;;;16.00;;
73825;SDS011;62155;55.080;73.208;2022-07-23T05:35:30;17.00;;;16.00;;
73825;SDS011;62155;55.080;73.208;2022-07-23T05:38:12;13.00;;;12.00;;
73825;SDS011;62155;55.080;73.208;2022-07-23T05:40:39;15.00;;;12.00;;
73825;SDS011;62155;55.080;73.208;2022-07-23T05:43:06;24.00;;;22.00;;
73825;SDS011;62155;55.080;73.208;2022-07-23T05:45:45;19.00;;;18.00;;
73825;SDS011;62155;55.080;73.208;2022-07-23T05:48:13;19.00;;;18.00;;
73825;SDS011;62155;55.080;73.208;2022-07-23T05:50:59;15.00;;;13.33;;
73825;SDS011;62155;55.080;73.208;2022-07-23T05:53:32;11.00;;;11.00;;
73825;SDS011;62155;55.080;73.208;2022-07-23T05:56:13;13.00;;;12.00;;
73825;SDS011;62155;55.080;73.208;2022-07-23T05:58:40;8.25;;;8.25;;
73825;SDS011;62155;55.080;73.208;2022-07-23T06:01:08;9.67;;;9.00;;
73825;SDS011;62155;55.080;73.208;2022-07-23T06:03:48;41.00;;;35.50;;
73825;SDS011;62155;55.080;73.208;2022-07-23T06:06:16;40.00;;;35.00;;
73825;SDS011;62155;55.080;73.208;2022-07-23T06:08:44;26.75;;;26.75;;
73825;SDS011;62155;55.080;73.208;2022-07-23T06:11:11;30.00;;;28.75;;
73825;SDS011;62155;55.080;73.208;2022-07-23T06:13:39;31.00;;;28.75;;
73825;SDS011;62155;55.080;73.208;2022-07-23T06:16:07;32.67;;;30.67;;
73825;SDS011;62155;55.080;73.208;2022-07-23T06:18:34;31.75;;;29.75;;
73825;SDS011;62155;55.080;73.208;2022-07-23T06:21:01;19.67;;;19.67;;
73825;SDS011;62155;55.080;73.208;2022-07-23T06:23:28;16.50;;;16.50;;
73825;SDS011;62155;55.080;73.208;2022-07-23T06:25:59;11.25;;;11.25;;
73825;SDS011;62155;55.080;73.208;2022-07-23T06:28:26;23.50;;;23.50;;
73825;SDS011;62155;55.080;73.208;2022-07-23T06:30:53;21.00;;;21.00;;
73825;SDS011;62155;55.080;73.208;2022-07-23T06:33:25;14.00;;;14.00;;
73825;SDS011;62155;55.080;73.208;2022-07-23T06:36:03;9.50;;;8.25;;
73825;SDS011;62155;55.080;73.208;2022-07-23T06:38:30;12.25;;;12.00;;
73825;SDS011;62155;55.080;73.208;2022-07-23T06:40:58;30.25;;;28.75;;
73825;SDS011;62155;55.080;73.208;2022-07-23T06:43:46;18.75;;;17.00;;
73825;SDS011;62155;55.080;73.208;2022-07-23T06:46:17;16.33;;;14.33;;
73825;SDS011;62155;55.080;73.208;2022-07-23T06:48:43;16.25;;;15.50;;
73825;SDS011;62155;55.080;73.208;2022-07-23T06:51:15;18.00;;;18.00;;
73825;SDS011;62155;55.080;73.208;2022-07-23T06:53:43;18.50;;;18.50;;
73825;SDS011;62155;55.080;73.208;2022-07-23T06:56:11;13.33;;;13.33;;
73825;SDS011;62155;55.080;73.208;2022-07-23T06:58:45;7.00;;;7.00;;
73825;SDS011;62155;55.080;73.208;2022-07-23T07:01:23;8.00;;;7.00;;
73825;SDS011;62155;55.080;73.208;2022-07-23T07:03:51;8.00;;;8.00;;
73825;SDS011;62155;55.080;73.208;2022-07-23T07:06:23;11.00;;;10.50;;
73825;SDS011;62155;55.080;73.208;2022-07-23T07:08:56;7.00;;;7.00;;
73825;SDS011;62155;55.080;73.208;2022-07-23T07:11:27;7.67;;;7.67;;
73825;SDS011;62155;55.080;73.208;2022-07-23T07:13:54;9.00;;;8.50;;
73825;SDS011;62155;55.080;73.208;2022-07-23T07:16:21;8.00;;;7.00;;
73825;SDS011;62155;55.080;73.208;2022-07-23T07:19:10;7.00;;;7.00;;
73825;SDS011;62155;55.080;73.208;2022-07-23T07:21:43;6.75;;;6.75;;
73825;SDS011;62155;55.080;73.208;2022-07-23T07:24:10;8.25;;;8.25;;
73825;SDS011;62155;55.080;73.208;2022-07-23T07:26:41;7.75;;;7.00;;
73825;SDS011;62155;55.080;73.208;2022-07-23T07:29:08;8.75;;;8.75;;
73825;SDS011;62155;55.080;73.208;2022-07-23T07:31:40;9.50;;;9.00;;
73825;SDS011;62155;55.080;73.208;2022-07-23T07:34:07;7.00;;;7.00;;
73825;SDS011;62155;55.080;73.208;2022-07-23T07:36:34;7.00;;;7.00;;
73825;SDS011;62155;55.080;73.208;2022-07-23T07:39:03;5.00;;;5.00;;
73825;SDS011;62155;55.080;73.208;2022-07-23T07:41:33;5.00;;;5.00;;
73825;SDS011;62155;55.080;73.208;2022-07-23T07:44:11;6.75;;;4.25;;
73825;SDS011;62155;55.080;73.208;2022-07-23T07:46:39;8.33;;;6.33;;
73825;SDS011;62155;55.080;73.208;2022-07-23T07:49:06;10.00;;;9.00;;
73825;SDS011;62155;55.080;73.208;2022-07-23T07:51:34;9.00;;;7.00;;
73825;SDS011;62155;55.080;73.208;2022-07-23T07:54:02;8.25;;;7.50;;
73825;SDS011;62155;55.080;73.208;2022-07-23T07:56:35;48.00;;;39.00;;
73825;SDS011;62155;55.080;73.208;2022-07-23T07:59:03;33.75;;;30.25;;
73825;SDS011;62155;55.080;73.208;2022-07-23T08:01:30;18.67;;;17.00;;
73825;SDS011;62155;55.080;73.208;2022-07-23T08:04:04;16.25;;;16.25;;
73825;SDS011;62155;55.080;73.208;2022-07-23T08:06:31;14.33;;;14.00;;
73825;SDS011;62155;55.080;73.208;2022-07-23T08:08:58;13.00;;;12.00;;
73825;SDS011;62155;55.080;73.208;2022-07-23T08:11:25;10.50;;;7.50;;
73825;SDS011;62155;55.080;73.208;2022-07-23T08:13:53;9.00;;;8.00;;
73825;SDS011;62155;55.080;73.208;2022-07-23T08:16:27;11.00;;;11.00;;
73825;SDS011;62155;55.080;73.208;2022-07-23T08:18:56;7.00;;;7.00;;
73825;SDS011;62155;55.080;73.208;2022-07-23T08:21:24;6.00;;;6.00;;
73825;SDS011;62155;55.080;73.208;2022-07-23T08:23:53;6.25;;;6.00;;
73825;SDS011;62155;55.080;73.208;2022-07-23T08:26:20;10.00;;;10.00;;
73825;SDS011;62155;55.080;73.208;2022-07-23T08:28:47;7.00;;;7.00;;
73825;SDS011;62155;55.080;73.208;2022-07-23T08:31:14;7.00;;;7.00;;
73825;SDS011;62155;55.080;73.208;2022-07-23T08:33:43;8.00;;;7.25;;
73825;SDS011;62155;55.080;73.208;2022-07-23T08:36:11;12.00;;;10.00;;
73825;SDS011;62155;55.080;73.208;2022-07-23T08:38:38;7.00;;;7.00;;
73825;SDS011;62155;55.080;73.208;2022-07-23T08:41:05;14.00;;;14.00;;
73825;SDS011;62155;55.080;73.208;2022-07-23T08:43:35;9.50;;;9.50;;
73825;SDS011;62155;55.080;73.208;2022-07-23T08:46:05;5.00;;;4.33;;
73825;SDS011;62155;55.080;73.208;2022-07-23T08:48:33;6.00;;;5.75;;
73825;SDS011;62155;55.080;73.208;2022-07-23T08:51:02;7.00;;;7.00;;
73825;SDS011;62155;55.080;73.208;2022-07-23T08:53:32;5.00;;;5.00;;
73825;SDS011;62155;55.080;73.208;2022-07-23T08:56:05;7.33;;;6.33;;
73825;SDS011;62155;55.080;73.208;2022-07-23T08:58:34;7.00;;;6.00;;
73825;SDS011;62155;55.080;73.208;2022-07-23T09:01:02;10.75;;;9.75;;
73825;SDS011;62155;55.080;73.208;2022-07-23T09:03:30;7.50;;;7.50;;
73825;SDS011;62155;55.080;73.208;2022-07-23T09:06:01;14.50;;;14.50;;
73825;SDS011;62155;55.080;73.208;2022-07-23T09:11:29;14.67;;;12.33;;
73825;SDS011;62155;55.080;73.208;2022-07-23T09:13:58;8.00;;;7.00;;
73825;SDS011;62155;55.080;73.208;2022-07-23T09:16:49;7.50;;;6.50;;
73825;SDS011;62155;55.080;73.208;2022-07-23T09:19:27;7.00;;;6.75;;
73825;SDS011;62155;55.080;73.208;2022-07-23T09:21:55;5.00;;;5.00;;
73825;SDS011;62155;55.080;73.208;2022-07-23T09:30:22;7.00;;;6.00;;
73825;SDS011;62155;55.080;73.208;2022-07-23T09:35:54;6.00;;;6.00;;
73825;SDS011;62155;55.080;73.208;2022-07-23T09:38:25;3.75;;;3.75;;
73825;SDS011;62155;55.080;73.208;2022-07-23T09:41:09;5.00;;;5.00;;
73825;SDS011;62155;55.080;73.208;2022-07-23T09:43:42;8.25;;;7.75;;
73825;SDS011;62155;55.080;73.208;2022-07-23T09:46:24;5.67;;;5.67;;
73825;SDS011;62155;55.080;73.208;2022-07-23T09:49:12;8.00;;;8.00;;
73825;SDS011;62155;55.080;73.208;2022-07-23T09:51:46;5.00;;;5.00;;
73825;SDS011;62155;55.080;73.208;2022-07-23T09:54:26;4.00;;;4.00;;
73825;SDS011;62155;55.080;73.208;2022-07-23T09:57:05;4.50;;;4.50;;
73825;SDS011;62155;55.080;73.208;2022-07-23T09:59:36;4.00;;;4.00;;
73825;SDS011;62155;55.080;73.208;2022-07-23T10:02:08;5.00;;;4.00;;
73825;SDS011;62155;55.080;73.208;2022-07-23T10:04:55;3.00;;;2.33;;
73825;SDS011;62155;55.080;73.208;2022-07-23T10:07:49;6.00;;;5.00;;
73825;SDS011;62155;55.080;73.208;2022-07-23T10:10:38;4.50;;;4.25;;
73825;SDS011;62155;55.080;73.208;2022-07-23T10:13:27;4.50;;;4.50;;
73825;SDS011;62155;55.080;73.208;2022-07-23T10:15:59;4.00;;;4.00;;
73825;SDS011;62155;55.080;73.208;2022-07-23T10:18:28;5.00;;;5.00;;
73825;SDS011;62155;55.080;73.208;2022-07-23T10:20:57;3.00;;;3.00;;
73825;SDS011;62155;55.080;73.208;2022-07-23T10:29:01;3.00;;;3.00;;
73825;SDS011;62155;55.080;73.208;2022-07-23T10:31:56;4.75;;;4.75;;
73825;SDS011;62155;55.080;73.208;2022-07-23T10:34:44;3.25;;;3.00;;
73825;SDS011;62155;55.080;73.208;2022-07-23T10:37:41;8.75;;;8.75;;
73825;SDS011;62155;55.080;73.208;2022-07-23T10:40:11;6.00;;;5.67;;
73825;SDS011;62155;55.080;73.208;2022-07-23T10:42:40;7.00;;;7.00;;
73825;SDS011;62155;55.080;73.208;2022-07-23T10:47:53;5.75;;;5.00;;
73825;SDS011;62155;55.080;73.208;2022-07-23T10:50:33;4.00;;;4.00;;
73825;SDS011;62155;55.080;73.208;2022-07-23T10:53:10;4.00;;;4.00;;
73825;SDS011;62155;55.080;73.208;2022-07-23T10:55:49;4.00;;;4.00;;
73825;SDS011;62155;55.080;73.208;2022-07-23T10:58:18;4.00;;;4.00;;
73825;SDS011;62155;55.080;73.208;2022-07-23T11:00:51;3.00;;;3.00;;
73825;SDS011;62155;55.080;73.208;2022-07-23T11:03:31;4.00;;;4.00;;
73825;SDS011;62155;55.080;73.208;2022-07-23T11:06:07;5.00;;;5.00;;
73825;SDS011;62155;55.080;73.208;2022-07-23T11:08:37;4.00;;;3.50;;
73825;SDS011;62155;55.080;73.208;2022-07-23T11:13:32;1.50;;;1.25;;
73825;SDS011;62155;55.080;73.208;2022-07-23T11:21:40;0.33;;;0.33;;
73825;SDS011;62155;55.080;73.208;2022-07-23T11:24:10;0.00;;;0.00;;
73825;SDS011;62155;55.080;73.208;2022-07-23T11:32:00;0.00;;;0.00;;
73825;SDS011;62155;55.080;73.208;2022-07-23T11:34:31;0.00;;;0.00;;
73825;SDS011;62155;55.080;73.208;2022-07-23T11:36:59;0.00;;;0.00;;
73825;SDS011;62155;55.080;73.208;2022-07-23T11:39:28;3.50;;;3.00;;
73825;SDS011;62155;55.080;73.208;2022-07-23T11:42:05;2.00;;;2.00;;
73825;SDS011;62155;55.080;73.208;2022-07-23T11:44:36;2.75;;;2.75;;
73825;SDS011;62155;55.080;73.208;2022-07-23T11:47:04;4.00;;;4.00;;
73825;SDS011;62155;55.080;73.208;2022-07-23T11:49:33;2.00;;;2.00;;
73825;SDS011;62155;55.080;73.208;2022-07-23T11:52:13;1.00;;;1.00;;
73825;SDS011;62155;55.080;73.208;2022-07-23T11:54:51;3.00;;;3.00;;
73825;SDS011;62155;55.080;73.208;2022-07-23T11:57:19;3.00;;;3.00;;
73825;SDS011;62155;55.080;73.208;2022-07-23T11:59:47;6.00;;;4.00;;
73825;SDS011;62155;55.080;73.208;2022-07-23T12:02:16;8.50;;;8.00;;
73825;SDS011;62155;55.080;73.208;2022-07-23T12:04:54;5.00;;;3.00;;
73825;SDS011;62155;55.080;73.208;2022-07-23T12:07:35;1.25;;;1.25;;
73825;SDS011;62155;55.080;73.208;2022-07-23T12:10:11;2.00;;;2.00;;
73825;SDS011;62155;55.080;73.208;2022-07-23T12:12:42;9.25;;;7.50;;
73825;SDS011;62155;55.080;73.208;2022-07-23T12:15:10;10.33;;;8.67;;
73825;SDS011;62155;55.080;73.208;2022-07-23T12:17:39;6.50;;;5.50;;
73825;SDS011;62155;55.080;73.208;2022-07-23T12:20:08;9.33;;;9.33;;
73825;SDS011;62155;55.080;73.208;2022-07-23T12:22:36;5.00;;;5.00;;
73825;SDS011;62155;55.080;73.208;2022-07-23T12:25:22;12.67;;;11.67;;
73825;SDS011;62155;55.080;73.208;2022-07-23T12:30:51;22.67;;;21.67;;
73825;SDS011;62155;55.080;73.208;2022-07-23T12:33:28;12.50;;;11.50;;
73825;SDS011;62155;55.080;73.208;2022-07-23T12:35:59;8.00;;;7.00;;
73825;SDS011;62155;55.080;73.208;2022-07-23T12:38:43;25.50;;;23.50;;
73825;SDS011;62155;55.080;73.208;2022-07-23T12:41:10;25.67;;;24.33;;
73825;SDS011;62155;55.080;73.208;2022-07-23T12:43:39;12.75;;;11.75;;
73825;SDS011;62155;55.080;73.208;2022-07-23T12:46:07;5.00;;;5.00;;
73825;SDS011;62155;55.080;73.208;2022-07-23T12:48:35;7.75;;;7.75;;
73825;SDS011;62155;55.080;73.208;2022-07-23T12:51:23;9.25;;;8.75;;
73825;SDS011;62155;55.080;73.208;2022-07-23T12:53:50;7.50;;;5.50;;
73825;SDS011;62155;55.080;73.208;2022-07-23T12:56:35;7.00;;;7.00;;
73825;SDS011;62155;55.080;73.208;2022-07-23T13:01:38;5.00;;;5.00;;
73825;SDS011;62155;55.080;73.208;2022-07-23T13:04:14;6.00;;;5.75;;
73825;SDS011;62155;55.080;73.208;2022-07-23T13:06:42;11.25;;;11.25;;
73825;SDS011;62155;55.080;73.208;2022-07-23T13:09:12;8.50;;;8.50;;
73825;SDS011;62155;55.080;73.208;2022-07-23T13:11:41;4.00;;;4.00;;
73825;SDS011;62155;55.080;73.208;2022-07-23T13:14:12;4.50;;;4.50;;
73825;SDS011;62155;55.080;73.208;2022-07-23T13:16:39;5.00;;;3.67;;
73825;SDS011;62155;55.080;73.208;2022-07-23T13:19:06;6.00;;;5.75;;
73825;SDS011;62155;55.080;73.208;2022-07-23T13:21:33;4.00;;;3.00;;
73825;SDS011;62155;55.080;73.208;2022-07-23T13:24:02;5.50;;;5.00;;
73825;SDS011;62155;55.080;73.208;2022-07-23T13:26:29;4.67;;;4.67;;
73825;SDS011;62155;55.080;73.208;2022-07-23T13:28:56;5.00;;;5.00;;
73825;SDS011;62155;55.080;73.208;2022-07-23T13:31:32;9.00;;;8.75;;
73825;SDS011;62155;55.080;73.208;2022-07-23T13:33:59;7.00;;;6.75;;
73825;SDS011;62155;55.080;73.208;2022-07-23T13:36:26;7.00;;;7.00;;
73825;SDS011;62155;55.080;73.208;2022-07-23T13:38:53;6.00;;;5.00;;
73825;SDS011;62155;55.080;73.208;2022-07-23T13:41:19;12.00;;;11.67;;
73825;SDS011;62155;55.080;73.208;2022-07-23T13:43:46;8.00;;;8.00;;
73825;SDS011;62155;55.080;73.208;2022-07-23T13:46:13;7.75;;;6.00;;
73825;SDS011;62155;55.080;73.208;2022-07-23T13:48:40;16.50;;;13.50;;
73825;SDS011;62155;55.080;73.208;2022-07-23T13:51:07;8.67;;;7.00;;
73825;SDS011;62155;55.080;73.208;2022-07-23T13:53:34;3.00;;;3.00;;
73825;SDS011;62155;55.080;73.208;2022-07-23T13:56:00;5.00;;;5.00;;
73825;SDS011;62155;55.080;73.208;2022-07-23T13:58:27;3.75;;;3.75;;
73825;SDS011;62155;55.080;73.208;2022-07-23T14:00:54;10.00;;;10.00;;
73825;SDS011;62155;55.080;73.208;2022-07-23T14:03:21;10.00;;;8.50;;
73825;SDS011;62155;55.080;73.208;2022-07-23T14:05:57;4.33;;;4.33;;
73825;SDS011;62155;55.080;73.208;2022-07-23T14:08:25;2.00;;;2.00;;
73825;SDS011;62155;55.080;73.208;2022-07-23T14:10:51;4.67;;;4.67;;
73825;SDS011;62155;55.080;73.208;2022-07-23T14:13:18;2.50;;;2.50;;
73825;SDS011;62155;55.080;73.208;2022-07-23T14:15:45;3.00;;;3.00;;
73825;SDS011;62155;55.080;73.208;2022-07-23T14:18:22;7.50;;;7.50;;
73825;SDS011;62155;55.080;73.208;2022-07-23T14:20:49;4.00;;;4.00;;
73825;SDS011;62155;55.080;73.208;2022-07-23T14:23:16;5.00;;;5.00;;
73825;SDS011;62155;55.080;73.208;2022-07-23T14:25:43;4.33;;;3.67;;
73825;SDS011;62155;55.080;73.208;2022-07-23T14:28:10;2.00;;;2.00;;
73825;SDS011;62155;55.080;73.208;2022-07-23T14:30:38;3.67;;;3.67;;
73825;SDS011;62155;55.080;73.208;2022-07-23T14:33:05;3.50;;;3.50;;
73825;SDS011;62155;55.080;73.208;2022-07-23T14:35:32;2.00;;;2.00;;
73825;SDS011;62155;55.080;73.208;2022-07-23T14:38:00;3.50;;;2.50;;
73825;SDS011;62155;55.080;73.208;2022-07-23T14:40:27;4.50;;;4.25;;
73825;SDS011;62155;55.080;73.208;2022-07-23T14:42:54;3.00;;;3.00;;
73825;SDS011;62155;55.080;73.208;2022-07-23T14:45:25;4.00;;;4.00;;
73825;SDS011;62155;55.080;73.208;2022-07-23T14:47:56;7.00;;;6.50;;
73825;SDS011;62155;55.080;73.208;2022-07-23T14:50:24;5.00;;;5.00;;
73825;SDS011;62155;55.080;73.208;2022-07-23T14:52:50;4.75;;;4.00;;
73825;SDS011;62155;55.080;73.208;2022-07-23T14:55:18;4.00;;;3.00;;
73825;SDS011;62155;55.080;73.208;2022-07-23T14:57:45;4.00;;;4.00;;
73825;SDS011;62155;55.080;73.208;2022-07-23T15:00:13;4.00;;;3.00;;
73825;SDS011;62155;55.080;73.208;2022-07-23T15:02:40;3.50;;;3.25;;
73825;SDS011;62155;55.080;73.208;2022-07-23T15:05:10;3.00;;;2.33;;
73825;SDS011;62155;55.080;73.208;2022-07-23T15:07:42;3.25;;;2.50;;
73825;SDS011;62155;55.080;73.208;2022-07-23T15:10:14;3.75;;;3.50;;
73825;SDS011;62155;55.080;73.208;2022-07-23T15:12:41;3.00;;;3.00;;
73825;SDS011;62155;55.080;73.208;2022-07-23T15:15:08;3.67;;;3.67;;
73825;SDS011;62155;55.080;73.208;2022-07-23T15:17:40;3.00;;;3.00;;
73825;SDS011;62155;55.080;73.208;2022-07-23T15:20:07;3.00;;;3.00;;
73825;SDS011;62155;55.080;73.208;2022-07-23T15:22:33;4.25;;;4.25;;
73825;SDS011;62155;55.080;73.208;2022-07-23T15:25:00;4.00;;;3.33;;
73825;SDS011;62155;55.080;73.208;2022-07-23T15:27:27;10.75;;;9.75;;